Архив погоды в Озерной

Метеограмма Озерная
Вторник, 19 Июня
Время местн. Темп Ветер Видим Явления Облачность нижн/средн/верх Атм. давл. Влжн Точка росы ВНГО R Сост. почвы Tg s
Напр Скр Прв ур.ст ур.м изм
09:00 +4.1° С 3 - 4 км дымка облачно 763 765 +0.4 95% +3.4° 600 м 0 Сухая (без трещин) - -
06:00 +3.7° С 3 - 4 км дымка облачно 762 765 -0.4 95% +3° 300 м - - - -
03:00 +4.3° С 3 - 10 км - облачно 763 765 +0.2 96% +3.7° 600 м - - - -
00:00 +4.7° С-З 4 - 10 км - облачно 762 765 +0.8 95% +3.9° 600 м - - - -
Понедельник, 18 Июня
Время местн. Темп Ветер Видим Явления Облачность нижн/средн/верх Атм. давл. Влжн Точка росы ВНГО R Сост. почвы Tg s
Напр Скр Прв ур.ст ур.м изм
21:00 +5.1° С-З 5 - 20 км - преимущественно облачно 762 764 +0.4 93% +4.1° 600 м 0 - - -
18:00 +6.5° С-З 6 - более 50 км - ясно 761 764 -0.2 87% +4.5° более 2.5 км - - - -
15:00 +6.1° С-З 6 10 более 50 км - переменная облачность 761 764 -0.2 86% +4° 1 км - - - -
12:00 +4.8° С-З 7 10 10 км - облачно 762 764 +0.2 93% +3.8° 600 м - - - -
09:00 +3.9° С-З 6 - 2 км дымка облачно 761 764 +0.6 99% +3.7° 200 м 0 Влажная (без луж) - -
06:00 +3.6° С 6 - 2 км дымка {морось, туман} облачно 761 764 +0.2 98% +3.3° 200 м - - - -
03:00 +4.6° С 5 - 500 м туман {морось} неба не видно 761 763 0 98% +4.3° - - - - -
00:00 +5.2° С,С-З 5 - 2 км слабая морось с перерывами облачно 761 763 +0.2 97% +4.8° 200 м - - - -
Воскресенье, 17 Июня
Время местн. Темп Ветер Видим Явления Облачность нижн/средн/верх Атм. давл. Влжн Точка росы ВНГО R Сост. почвы Tg s
Напр Скр Прв ур.ст ур.м изм
21:00 +5.9° С,С-З 6 - 20 км - облачно 761 763 +0.5 95% +5.2° 200 м 0 - - -
18:00 +6° С-З 6 10 20 км - облачно 760 763 +0.3 95% +5.2° 200 м - - - -
15:00 +6.7° С-З 7 10 20 км - преимущественно облачно 760 762 +0.2 91% +5.3° 200 м - - - -
12:00 +6.1° С-З 6 - 20 км небо без изменений {морось} преимущественно облачно 760 762 +0.1 91% +4.7° 300 м - - - -
09:00 +5.8° С,С-З 6 - 10 км небо без изменений {морось} облачно 759 762 +0.2 91% +4.5° 600 м 0 - - -
06:00 +4.4° С,С-В 3 - 4 км слабая непрерывная морось облачно 759 762 +0.4 97% +3.9° 300 м - - - -
03:00 - +4.4° С 3 - - - - 759 762 +0.1 97% +3.9° - - - - -
00:00 +5° С,С-В 2 - 10 км слабая непрерывная морось облачно 759 762 +0.1 96% +4.4° 200 м - - - -
Суббота, 16 Июня
Время местн. Темп Ветер Видим Явления Облачность нижн/средн/верх Атм. давл. Влжн Точка росы ВНГО R Сост. почвы Tg s
Напр Скр Прв ур.ст ур.м изм
21:00 +5.3° З,С-З 4 - 10 км - облачно 759 762 0 96% +4.7° 200 м 0 - - -
18:00 +6.1° З,С-З 4 - 10 км - облачно 759 762 +0.1 92% +4.9° 300 м - - - -
15:00 +6.3° З,С-З 4 - 10 км - облачно 759 761 -0.3 90% +4.8° 300 м - - - -
12:00 +5.5° С-З 6 - 10 км небо без изменений {ливневые осадки} облачно 759 762 +0.1 93% +4.4° 300 м - - - -
09:00 +5.5° С,С-З 5 - 4 км слабый ливневый дождь облачно 759 762 -0.5 92% +4.3° 600 м 0 Влажная (без луж) +5° -
06:00 +4.6° С 4 - 20 км - преимущественно облачно 760 762 -0.2 93% +3.6° 1 км - - - -